CheckWX is a tool to help pilots better visualize weather data.  It is not intended as a substitute for an official pre-flight weather briefing.

08:13:36 UTC

KFPR METAR
Treasure Coast International Airport
Fort Pierce, Florida, USA
Current

11 mins ago

KFPR 220803Z AUTO 00000KT 10SM BKN021 18/16 A3012 RMK AO2 T01780161
Observed
Feb-22 @ 08:03 UTC
Visibility
10 SM
Flight Rules
MVFR
Cloud Levels
  • Broken at 2,100' AGL
Temperature
18°C / 64°F
Dewpoint
16°C / 61°F
Humidity
88%
Altimeter
30.12" Hg
Pressure
1020.02 hPa
Previous

21 mins ago

KFPR 220753Z AUTO 00000KT 10SM SCT021 17/16 A3013 RMK AO2 SLP201 T01720161
Observed
Feb-22 @ 07:53 UTC
Visibility
10 SM
Flight Rules
VFR
Cloud Levels
  • Scattered at 2,100' AGL
Temperature
17°C / 63°F
Dewpoint
16°C / 61°F
Humidity
94%
Altimeter
30.13" Hg
Pressure
1020.1 hPa
Previous

1 hour ago

KFPR 220653Z AUTO 00000KT 7SM FEW018 18/16 A3013 RMK AO2 SLP203 T01780161
Observed
Feb-22 @ 06:53 UTC
Visibility
7 SM
Flight Rules
VFR
Cloud Levels
  • Few at 1,800' AGL
Temperature
18°C / 64°F
Dewpoint
16°C / 61°F
Humidity
88%
Altimeter
30.13" Hg
Pressure
1020.3 hPa